sensor_id;sensor_type;location;lat;lon;timestamp;P1;durP1;ratioP1;P2;durP2;ratioP2
10811;SDS011;5458;51.496;7.334;2022-08-03T00:01:17;2.15;;;1.55;;
10811;SDS011;5458;51.496;7.334;2022-08-03T00:03:43;4.75;;;2.20;;
10811;SDS011;5458;51.496;7.334;2022-08-03T00:06:09;2.70;;;2.00;;
10811;SDS011;5458;51.496;7.334;2022-08-03T00:08:34;3.45;;;2.40;;
10811;SDS011;5458;51.496;7.334;2022-08-03T00:11:00;3.20;;;2.38;;
10811;SDS011;5458;51.496;7.334;2022-08-03T00:13:26;4.13;;;2.10;;
10811;SDS011;5458;51.496;7.334;2022-08-03T00:15:52;3.50;;;1.98;;
10811;SDS011;5458;51.496;7.334;2022-08-03T00:18:18;3.20;;;2.70;;
10811;SDS011;5458;51.496;7.334;2022-08-03T00:20:44;3.97;;;2.55;;
10811;SDS011;5458;51.496;7.334;2022-08-03T00:23:09;4.93;;;2.38;;
10811;SDS011;5458;51.496;7.334;2022-08-03T00:25:35;3.13;;;2.30;;
10811;SDS011;5458;51.496;7.334;2022-08-03T00:28:01;4.35;;;2.30;;
10811;SDS011;5458;51.496;7.334;2022-08-03T00:30:28;5.95;;;2.55;;
10811;SDS011;5458;51.496;7.334;2022-08-03T00:32:54;4.13;;;2.50;;
10811;SDS011;5458;51.496;7.334;2022-08-03T00:35:20;2.08;;;1.88;;
10811;SDS011;5458;51.496;7.334;2022-08-03T00:37:45;3.97;;;2.85;;
10811;SDS011;5458;51.496;7.334;2022-08-03T00:40:12;3.97;;;2.60;;
10811;SDS011;5458;51.496;7.334;2022-08-03T00:42:48;3.15;;;2.15;;
10811;SDS011;5458;51.496;7.334;2022-08-03T00:45:15;3.30;;;2.60;;
10811;SDS011;5458;51.496;7.334;2022-08-03T00:47:42;2.83;;;2.63;;
10811;SDS011;5458;51.496;7.334;2022-08-03T00:50:08;2.75;;;2.20;;
10811;SDS011;5458;51.496;7.334;2022-08-03T00:52:34;3.63;;;2.35;;
10811;SDS011;5458;51.496;7.334;2022-08-03T00:55:00;3.90;;;2.63;;
10811;SDS011;5458;51.496;7.334;2022-08-03T00:57:27;3.85;;;2.10;;
10811;SDS011;5458;51.496;7.334;2022-08-03T00:59:56;3.05;;;2.10;;
10811;SDS011;5458;51.496;7.334;2022-08-03T01:02:24;2.72;;;2.25;;
10811;SDS011;5458;51.496;7.334;2022-08-03T01:04:50;3.13;;;2.05;;
10811;SDS011;5458;51.496;7.334;2022-08-03T01:18:02;2.20;;;2.00;;
10811;SDS011;5458;51.496;7.334;2022-08-03T01:20:34;3.15;;;2.40;;
10811;SDS011;5458;51.496;7.334;2022-08-03T01:31:47;3.85;;;2.28;;
10811;SDS011;5458;51.496;7.334;2022-08-03T01:34:22;2.50;;;2.30;;
10811;SDS011;5458;51.496;7.334;2022-08-03T01:36:53;5.00;;;2.28;;
10811;SDS011;5458;51.496;7.334;2022-08-03T01:39:21;2.70;;;1.95;;
10811;SDS011;5458;51.496;7.334;2022-08-03T01:41:49;2.60;;;2.40;;
10811;SDS011;5458;51.496;7.334;2022-08-03T01:44:23;2.70;;;2.38;;
10811;SDS011;5458;51.496;7.334;2022-08-03T01:46:55;2.17;;;1.98;;
10811;SDS011;5458;51.496;7.334;2022-08-03T01:49:23;4.70;;;2.33;;
10811;SDS011;5458;51.496;7.334;2022-08-03T01:51:50;6.22;;;2.22;;
10811;SDS011;5458;51.496;7.334;2022-08-03T01:54:16;4.18;;;2.28;;
10811;SDS011;5458;51.496;7.334;2022-08-03T01:56:43;3.50;;;2.20;;
10811;SDS011;5458;51.496;7.334;2022-08-03T01:59:13;4.38;;;2.70;;
10811;SDS011;5458;51.496;7.334;2022-08-03T02:01:41;3.53;;;2.25;;
10811;SDS011;5458;51.496;7.334;2022-08-03T02:04:07;2.88;;;1.95;;
10811;SDS011;5458;51.496;7.334;2022-08-03T02:06:35;3.65;;;2.35;;
10811;SDS011;5458;51.496;7.334;2022-08-03T02:09:02;3.10;;;2.35;;
10811;SDS011;5458;51.496;7.334;2022-08-03T02:11:30;2.53;;;2.25;;
10811;SDS011;5458;51.496;7.334;2022-08-03T02:13:57;3.42;;;2.38;;
10811;SDS011;5458;51.496;7.334;2022-08-03T02:16:26;4.43;;;2.42;;
10811;SDS011;5458;51.496;7.334;2022-08-03T02:18:53;3.33;;;2.17;;
10811;SDS011;5458;51.496;7.334;2022-08-03T02:21:20;7.22;;;2.30;;
10811;SDS011;5458;51.496;7.334;2022-08-03T02:23:47;3.92;;;2.50;;
10811;SDS011;5458;51.496;7.334;2022-08-03T02:26:14;4.38;;;2.92;;
10811;SDS011;5458;51.496;7.334;2022-08-03T02:28:45;3.67;;;2.42;;
10811;SDS011;5458;51.496;7.334;2022-08-03T02:31:16;4.13;;;2.47;;
10811;SDS011;5458;51.496;7.334;2022-08-03T02:33:49;4.63;;;2.83;;
10811;SDS011;5458;51.496;7.334;2022-08-03T02:36:18;2.67;;;2.47;;
10811;SDS011;5458;51.496;7.334;2022-08-03T02:38:48;2.33;;;1.98;;
10811;SDS011;5458;51.496;7.334;2022-08-03T02:41:17;5.63;;;2.00;;
10811;SDS011;5458;51.496;7.334;2022-08-03T02:43:49;4.60;;;2.50;;
10811;SDS011;5458;51.496;7.334;2022-08-03T02:46:22;4.13;;;2.50;;
10811;SDS011;5458;51.496;7.334;2022-08-03T02:48:52;2.97;;;2.05;;
10811;SDS011;5458;51.496;7.334;2022-08-03T02:51:19;4.43;;;2.30;;
10811;SDS011;5458;51.496;7.334;2022-08-03T02:53:46;2.78;;;2.17;;
10811;SDS011;5458;51.496;7.334;2022-08-03T02:56:12;3.22;;;2.53;;
10811;SDS011;5458;51.496;7.334;2022-08-03T02:58:41;3.00;;;2.70;;
10811;SDS011;5458;51.496;7.334;2022-08-03T03:01:09;3.20;;;1.95;;
10811;SDS011;5458;51.496;7.334;2022-08-03T03:03:36;2.90;;;2.60;;
10811;SDS011;5458;51.496;7.334;2022-08-03T03:06:04;3.45;;;2.30;;
10811;SDS011;5458;51.496;7.334;2022-08-03T03:08:30;3.25;;;2.20;;
10811;SDS011;5458;51.496;7.334;2022-08-03T03:10:57;2.70;;;2.40;;
10811;SDS011;5458;51.496;7.334;2022-08-03T03:13:25;4.15;;;2.40;;
10811;SDS011;5458;51.496;7.334;2022-08-03T03:15:55;3.28;;;2.60;;
10811;SDS011;5458;51.496;7.334;2022-08-03T03:18:24;2.85;;;2.20;;
10811;SDS011;5458;51.496;7.334;2022-08-03T03:20:52;3.28;;;2.50;;
10811;SDS011;5458;51.496;7.334;2022-08-03T03:23:20;3.45;;;2.50;;
10811;SDS011;5458;51.496;7.334;2022-08-03T03:25:46;4.18;;;2.40;;
10811;SDS011;5458;51.496;7.334;2022-08-03T03:28:13;4.03;;;3.03;;
10811;SDS011;5458;51.496;7.334;2022-08-03T03:30:39;3.65;;;2.20;;
10811;SDS011;5458;51.496;7.334;2022-08-03T03:33:05;3.45;;;2.33;;
10811;SDS011;5458;51.496;7.334;2022-08-03T03:35:31;2.95;;;2.35;;
10811;SDS011;5458;51.496;7.334;2022-08-03T03:37:57;2.75;;;2.25;;
10811;SDS011;5458;51.496;7.334;2022-08-03T03:40:22;2.10;;;2.00;;
10811;SDS011;5458;51.496;7.334;2022-08-03T03:42:48;2.83;;;2.20;;
10811;SDS011;5458;51.496;7.334;2022-08-03T03:45:14;3.10;;;2.50;;
10811;SDS011;5458;51.496;7.334;2022-08-03T03:47:40;4.97;;;3.00;;
10811;SDS011;5458;51.496;7.334;2022-08-03T03:50:06;2.92;;;2.60;;
10811;SDS011;5458;51.496;7.334;2022-08-03T03:52:32;3.40;;;2.75;;
10811;SDS011;5458;51.496;7.334;2022-08-03T03:54:58;3.33;;;2.35;;
10811;SDS011;5458;51.496;7.334;2022-08-03T03:57:24;2.70;;;2.38;;
10811;SDS011;5458;51.496;7.334;2022-08-03T03:59:50;4.07;;;2.60;;
10811;SDS011;5458;51.496;7.334;2022-08-03T04:02:15;7.07;;;2.60;;
10811;SDS011;5458;51.496;7.334;2022-08-03T04:04:41;4.70;;;3.05;;
10811;SDS011;5458;51.496;7.334;2022-08-03T04:07:26;2.72;;;2.45;;
10811;SDS011;5458;51.496;7.334;2022-08-03T04:10:16;2.45;;;2.15;;
10811;SDS011;5458;51.496;7.334;2022-08-03T04:13:06;4.43;;;2.50;;
10811;SDS011;5458;51.496;7.334;2022-08-03T04:15:35;5.35;;;2.67;;
10811;SDS011;5458;51.496;7.334;2022-08-03T04:18:03;3.90;;;2.80;;
10811;SDS011;5458;51.496;7.334;2022-08-03T04:20:31;3.03;;;2.30;;
10811;SDS011;5458;51.496;7.334;2022-08-03T04:22:59;2.85;;;2.55;;
10811;SDS011;5458;51.496;7.334;2022-08-03T04:25:27;3.38;;;2.58;;
10811;SDS011;5458;51.496;7.334;2022-08-03T04:27:56;3.28;;;2.47;;
10811;SDS011;5458;51.496;7.334;2022-08-03T04:30:25;2.83;;;2.30;;
10811;SDS011;5458;51.496;7.334;2022-08-03T04:32:53;6.47;;;2.25;;
10811;SDS011;5458;51.496;7.334;2022-08-03T04:35:20;5.97;;;2.42;;
10811;SDS011;5458;51.496;7.334;2022-08-03T04:37:48;4.25;;;2.70;;
10811;SDS011;5458;51.496;7.334;2022-08-03T04:40:35;2.92;;;2.35;;
10811;SDS011;5458;51.496;7.334;2022-08-03T04:43:03;3.75;;;2.60;;
10811;SDS011;5458;51.496;7.334;2022-08-03T04:45:31;4.07;;;2.60;;
10811;SDS011;5458;51.496;7.334;2022-08-03T04:47:59;3.15;;;2.47;;
10811;SDS011;5458;51.496;7.334;2022-08-03T04:50:25;4.10;;;2.50;;
10811;SDS011;5458;51.496;7.334;2022-08-03T04:52:52;3.13;;;2.55;;
10811;SDS011;5458;51.496;7.334;2022-08-03T04:55:25;2.38;;;2.17;;
10811;SDS011;5458;51.496;7.334;2022-08-03T04:57:54;3.72;;;2.38;;
10811;SDS011;5458;51.496;7.334;2022-08-03T05:00:20;3.03;;;2.33;;
10811;SDS011;5458;51.496;7.334;2022-08-03T05:02:46;2.53;;;1.92;;
10811;SDS011;5458;51.496;7.334;2022-08-03T05:05:12;3.63;;;2.80;;
10811;SDS011;5458;51.496;7.334;2022-08-03T05:07:37;2.55;;;2.00;;
10811;SDS011;5458;51.496;7.334;2022-08-03T05:10:05;2.95;;;2.55;;
10811;SDS011;5458;51.496;7.334;2022-08-03T05:12:32;4.03;;;2.33;;
10811;SDS011;5458;51.496;7.334;2022-08-03T05:14:58;2.88;;;2.58;;
10811;SDS011;5458;51.496;7.334;2022-08-03T05:17:23;4.13;;;2.53;;
10811;SDS011;5458;51.496;7.334;2022-08-03T05:19:49;3.30;;;2.25;;
10811;SDS011;5458;51.496;7.334;2022-08-03T05:22:15;2.58;;;1.85;;
10811;SDS011;5458;51.496;7.334;2022-08-03T05:24:40;3.45;;;2.63;;
10811;SDS011;5458;51.496;7.334;2022-08-03T05:27:06;4.03;;;2.42;;
10811;SDS011;5458;51.496;7.334;2022-08-03T05:29:31;3.10;;;2.10;;
10811;SDS011;5458;51.496;7.334;2022-08-03T05:31:57;3.78;;;2.33;;
10811;SDS011;5458;51.496;7.334;2022-08-03T05:34:22;5.35;;;2.38;;
10811;SDS011;5458;51.496;7.334;2022-08-03T05:36:48;2.83;;;2.17;;
10811;SDS011;5458;51.496;7.334;2022-08-03T05:39:14;4.70;;;2.20;;
10811;SDS011;5458;51.496;7.334;2022-08-03T05:41:39;5.35;;;2.55;;
10811;SDS011;5458;51.496;7.334;2022-08-03T05:44:05;7.18;;;3.00;;
10811;SDS011;5458;51.496;7.334;2022-08-03T05:46:30;6.65;;;3.33;;
10811;SDS011;5458;51.496;7.334;2022-08-03T05:48:56;9.35;;;3.53;;
10811;SDS011;5458;51.496;7.334;2022-08-03T05:51:21;3.95;;;2.72;;
10811;SDS011;5458;51.496;7.334;2022-08-03T05:53:47;3.65;;;2.00;;
10811;SDS011;5458;51.496;7.334;2022-08-03T05:56:13;2.72;;;2.00;;
10811;SDS011;5458;51.496;7.334;2022-08-03T05:58:39;3.13;;;1.77;;
10811;SDS011;5458;51.496;7.334;2022-08-03T06:01:04;5.80;;;2.33;;
10811;SDS011;5458;51.496;7.334;2022-08-03T06:03:30;4.32;;;2.00;;
10811;SDS011;5458;51.496;7.334;2022-08-03T06:05:55;2.92;;;2.00;;
10811;SDS011;5458;51.496;7.334;2022-08-03T06:08:21;6.75;;;1.90;;
10811;SDS011;5458;51.496;7.334;2022-08-03T06:10:47;2.65;;;1.42;;
10811;SDS011;5458;51.496;7.334;2022-08-03T06:13:13;4.57;;;1.80;;
10811;SDS011;5458;51.496;7.334;2022-08-03T06:15:39;4.45;;;1.50;;
10811;SDS011;5458;51.496;7.334;2022-08-03T06:18:05;5.18;;;1.90;;
10811;SDS011;5458;51.496;7.334;2022-08-03T06:20:32;3.25;;;2.33;;
10811;SDS011;5458;51.496;7.334;2022-08-03T06:22:57;321.63;;;310.98;;
10811;SDS011;5458;51.496;7.334;2022-08-03T06:25:24;844.30;;;792.85;;
10811;SDS011;5458;51.496;7.334;2022-08-03T06:27:50;819.35;;;775.92;;
10811;SDS011;5458;51.496;7.334;2022-08-03T06:30:16;632.33;;;605.50;;
10811;SDS011;5458;51.496;7.334;2022-08-03T06:32:42;544.67;;;524.05;;
10811;SDS011;5458;51.496;7.334;2022-08-03T06:35:08;235.98;;;228.35;;
10811;SDS011;5458;51.496;7.334;2022-08-03T06:37:44;158.68;;;153.45;;
10811;SDS011;5458;51.496;7.334;2022-08-03T06:40:13;67.28;;;65.03;;
10811;SDS011;5458;51.496;7.334;2022-08-03T06:42:40;65.45;;;63.00;;
10811;SDS011;5458;51.496;7.334;2022-08-03T06:45:06;167.95;;;162.57;;
10811;SDS011;5458;51.496;7.334;2022-08-03T06:47:34;178.25;;;172.60;;
10811;SDS011;5458;51.496;7.334;2022-08-03T06:50:00;225.98;;;218.82;;
10811;SDS011;5458;51.496;7.334;2022-08-03T06:52:27;208.93;;;202.25;;
10811;SDS011;5458;51.496;7.334;2022-08-03T06:54:53;67.15;;;64.78;;
10811;SDS011;5458;51.496;7.334;2022-08-03T06:57:18;43.92;;;42.35;;
10811;SDS011;5458;51.496;7.334;2022-08-03T06:59:44;34.10;;;32.70;;
10811;SDS011;5458;51.496;7.334;2022-08-03T07:02:10;31.98;;;30.58;;
10811;SDS011;5458;51.496;7.334;2022-08-03T07:04:36;14.95;;;14.13;;
10811;SDS011;5458;51.496;7.334;2022-08-03T07:07:02;16.38;;;15.27;;
10811;SDS011;5458;51.496;7.334;2022-08-03T07:09:27;11.90;;;11.20;;
10811;SDS011;5458;51.496;7.334;2022-08-03T07:11:53;10.18;;;9.32;;
10811;SDS011;5458;51.496;7.334;2022-08-03T07:14:19;8.50;;;8.10;;
10811;SDS011;5458;51.496;7.334;2022-08-03T07:16:45;10.45;;;9.85;;
10811;SDS011;5458;51.496;7.334;2022-08-03T07:19:11;9.00;;;8.48;;
10811;SDS011;5458;51.496;7.334;2022-08-03T07:21:36;8.68;;;8.07;;
10811;SDS011;5458;51.496;7.334;2022-08-03T07:24:02;13.45;;;12.85;;
10811;SDS011;5458;51.496;7.334;2022-08-03T07:26:28;8.05;;;7.65;;
10811;SDS011;5458;51.496;7.334;2022-08-03T07:28:53;7.53;;;6.97;;
10811;SDS011;5458;51.496;7.334;2022-08-03T07:31:19;5.85;;;3.85;;
10811;SDS011;5458;51.496;7.334;2022-08-03T07:33:45;4.45;;;4.25;;
10811;SDS011;5458;51.496;7.334;2022-08-03T07:36:10;2.63;;;2.42;;
10811;SDS011;5458;51.496;7.334;2022-08-03T07:38:36;3.28;;;2.97;;
10811;SDS011;5458;51.496;7.334;2022-08-03T07:41:02;2.50;;;2.40;;
10811;SDS011;5458;51.496;7.334;2022-08-03T07:43:27;2.85;;;2.65;;
10811;SDS011;5458;51.496;7.334;2022-08-03T07:45:53;2.97;;;2.65;;
10811;SDS011;5458;51.496;7.334;2022-08-03T07:48:19;3.17;;;2.88;;
10811;SDS011;5458;51.496;7.334;2022-08-03T07:50:44;3.08;;;2.65;;
10811;SDS011;5458;51.496;7.334;2022-08-03T07:53:10;5.00;;;2.40;;
10811;SDS011;5458;51.496;7.334;2022-08-03T07:55:36;2.40;;;2.03;;
10811;SDS011;5458;51.496;7.334;2022-08-03T08:00:28;1.52;;;1.42;;
10811;SDS011;5458;51.496;7.334;2022-08-03T08:02:54;3.17;;;1.63;;
10811;SDS011;5458;51.496;7.334;2022-08-03T08:05:20;2.60;;;1.40;;
10811;SDS011;5458;51.496;7.334;2022-08-03T08:07:45;1.88;;;1.73;;
10811;SDS011;5458;51.496;7.334;2022-08-03T08:10:11;1.63;;;1.52;;
10811;SDS011;5458;51.496;7.334;2022-08-03T08:12:37;2.83;;;1.35;;
10811;SDS011;5458;51.496;7.334;2022-08-03T08:15:03;1.85;;;1.33;;
10811;SDS011;5458;51.496;7.334;2022-08-03T08:17:39;1.60;;;1.13;;
10811;SDS011;5458;51.496;7.334;2022-08-03T08:20:10;2.17;;;1.40;;
10811;SDS011;5458;51.496;7.334;2022-08-03T08:22:39;2.58;;;1.10;;
10811;SDS011;5458;51.496;7.334;2022-08-03T08:25:05;1.20;;;1.02;;
10811;SDS011;5458;51.496;7.334;2022-08-03T08:27:31;1.83;;;1.10;;
10811;SDS011;5458;51.496;7.334;2022-08-03T08:29:56;3.25;;;1.33;;
10811;SDS011;5458;51.496;7.334;2022-08-03T08:32:22;2.67;;;1.10;;
10811;SDS011;5458;51.496;7.334;2022-08-03T08:34:48;5.00;;;0.95;;
10811;SDS011;5458;51.496;7.334;2022-08-03T08:37:13;3.22;;;1.23;;
10811;SDS011;5458;51.496;7.334;2022-08-03T08:39:39;2.17;;;1.00;;
10811;SDS011;5458;51.496;7.334;2022-08-03T08:42:05;1.45;;;1.17;;
10811;SDS011;5458;51.496;7.334;2022-08-03T08:44:30;2.85;;;1.30;;
10811;SDS011;5458;51.496;7.334;2022-08-03T08:46:56;2.05;;;1.58;;
10811;SDS011;5458;51.496;7.334;2022-08-03T08:49:26;1.60;;;1.38;;
10811;SDS011;5458;51.496;7.334;2022-08-03T08:51:53;1.77;;;1.48;;
10811;SDS011;5458;51.496;7.334;2022-08-03T08:54:20;2.50;;;1.23;;
10811;SDS011;5458;51.496;7.334;2022-08-03T08:56:50;2.17;;;1.00;;
10811;SDS011;5458;51.496;7.334;2022-08-03T08:59:17;1.67;;;1.50;;
10811;SDS011;5458;51.496;7.334;2022-08-03T09:01:44;2.17;;;1.88;;
10811;SDS011;5458;51.496;7.334;2022-08-03T09:04:10;2.95;;;2.03;;
10811;SDS011;5458;51.496;7.334;2022-08-03T09:06:36;2.78;;;1.90;;
10811;SDS011;5458;51.496;7.334;2022-08-03T09:09:01;2.22;;;1.92;;
10811;SDS011;5458;51.496;7.334;2022-08-03T09:11:27;3.72;;;2.05;;
10811;SDS011;5458;51.496;7.334;2022-08-03T09:13:53;3.60;;;1.70;;
10811;SDS011;5458;51.496;7.334;2022-08-03T09:16:19;1.90;;;1.67;;
10811;SDS011;5458;51.496;7.334;2022-08-03T09:18:50;3.85;;;1.88;;
10811;SDS011;5458;51.496;7.334;2022-08-03T09:21:18;3.95;;;3.05;;
10811;SDS011;5458;51.496;7.334;2022-08-03T09:23:49;5.43;;;4.78;;
10811;SDS011;5458;51.496;7.334;2022-08-03T09:26:21;3.45;;;3.17;;
10811;SDS011;5458;51.496;7.334;2022-08-03T09:29:06;5.50;;;5.10;;
10811;SDS011;5458;51.496;7.334;2022-08-03T09:31:34;6.35;;;6.00;;
10811;SDS011;5458;51.496;7.334;2022-08-03T09:34:06;5.82;;;5.28;;
10811;SDS011;5458;51.496;7.334;2022-08-03T09:36:43;4.72;;;4.32;;
10811;SDS011;5458;51.496;7.334;2022-08-03T09:39:16;3.90;;;3.70;;
10811;SDS011;5458;51.496;7.334;2022-08-03T09:42:03;4.20;;;4.00;;
10811;SDS011;5458;51.496;7.334;2022-08-03T09:44:37;4.70;;;4.28;;
10811;SDS011;5458;51.496;7.334;2022-08-03T09:47:06;4.07;;;3.88;;
10811;SDS011;5458;51.496;7.334;2022-08-03T09:49:37;4.25;;;4.05;;
10811;SDS011;5458;51.496;7.334;2022-08-03T09:54:42;3.75;;;3.45;;
10811;SDS011;5458;51.496;7.334;2022-08-03T09:57:18;4.95;;;4.55;;
10811;SDS011;5458;51.496;7.334;2022-08-03T09:59:49;4.03;;;3.83;;
10811;SDS011;5458;51.496;7.334;2022-08-03T10:02:22;3.50;;;3.20;;
10811;SDS011;5458;51.496;7.334;2022-08-03T10:04:50;4.20;;;3.80;;
10811;SDS011;5458;51.496;7.334;2022-08-03T10:07:17;4.03;;;3.83;;
10811;SDS011;5458;51.496;7.334;2022-08-03T10:12:19;4.13;;;3.83;;
10811;SDS011;5458;51.496;7.334;2022-08-03T10:14:46;3.95;;;3.70;;
10811;SDS011;5458;51.496;7.334;2022-08-03T10:17:11;3.85;;;3.38;;
10811;SDS011;5458;51.496;7.334;2022-08-03T10:19:38;3.72;;;3.42;;
10811;SDS011;5458;51.496;7.334;2022-08-03T10:22:13;6.22;;;5.75;;
10811;SDS011;5458;51.496;7.334;2022-08-03T10:24:51;3.95;;;3.65;;
10811;SDS011;5458;51.496;7.334;2022-08-03T10:27:21;4.85;;;4.40;;
10811;SDS011;5458;51.496;7.334;2022-08-03T10:29:50;5.28;;;4.90;;
10811;SDS011;5458;51.496;7.334;2022-08-03T10:32:21;4.30;;;4.10;;
10811;SDS011;5458;51.496;7.334;2022-08-03T10:35:05;6.50;;;5.93;;
10811;SDS011;5458;51.496;7.334;2022-08-03T10:37:48;5.32;;;4.90;;
10811;SDS011;5458;51.496;7.334;2022-08-03T10:40:25;5.05;;;4.75;;
10811;SDS011;5458;51.496;7.334;2022-08-03T10:42:53;3.50;;;3.40;;
10811;SDS011;5458;51.496;7.334;2022-08-03T10:45:24;5.28;;;4.88;;
10811;SDS011;5458;51.496;7.334;2022-08-03T10:47:52;4.82;;;4.63;;
10811;SDS011;5458;51.496;7.334;2022-08-03T10:50:24;6.10;;;5.50;;
10811;SDS011;5458;51.496;7.334;2022-08-03T10:52:54;5.70;;;5.20;;
10811;SDS011;5458;51.496;7.334;2022-08-03T11:04:20;4.53;;;4.22;;
10811;SDS011;5458;51.496;7.334;2022-08-03T11:07:12;5.35;;;4.95;;
10811;SDS011;5458;51.496;7.334;2022-08-03T11:09:48;7.35;;;6.85;;
10811;SDS011;5458;51.496;7.334;2022-08-03T11:12:24;6.50;;;5.97;;
10811;SDS011;5458;51.496;7.334;2022-08-03T11:14:51;5.35;;;4.72;;
10811;SDS011;5458;51.496;7.334;2022-08-03T11:17:18;5.28;;;4.88;;
10811;SDS011;5458;51.496;7.334;2022-08-03T11:19:48;6.10;;;5.60;;
10811;SDS011;5458;51.496;7.334;2022-08-03T11:22:15;6.53;;;5.50;;
10811;SDS011;5458;51.496;7.334;2022-08-03T11:37:33;8.93;;;8.43;;
10811;SDS011;5458;51.496;7.334;2022-08-03T11:39:59;13.85;;;13.25;;
10811;SDS011;5458;51.496;7.334;2022-08-03T11:44:55;12.65;;;11.95;;
10811;SDS011;5458;51.496;7.334;2022-08-03T11:47:23;10.30;;;9.68;;
10811;SDS011;5458;51.496;7.334;2022-08-03T11:49:53;9.85;;;7.75;;
10811;SDS011;5458;51.496;7.334;2022-08-03T11:52:21;6.85;;;6.38;;
10811;SDS011;5458;51.496;7.334;2022-08-03T11:54:51;4.97;;;4.53;;
10811;SDS011;5458;51.496;7.334;2022-08-03T11:57:27;4.70;;;4.40;;
10811;SDS011;5458;51.496;7.334;2022-08-03T11:59:54;10.18;;;8.10;;
10811;SDS011;5458;51.496;7.334;2022-08-03T12:02:20;8.05;;;7.45;;
10811;SDS011;5458;51.496;7.334;2022-08-03T12:04:55;7.75;;;7.22;;
10811;SDS011;5458;51.496;7.334;2022-08-03T12:07:23;17.55;;;16.75;;
10811;SDS011;5458;51.496;7.334;2022-08-03T12:10:05;10.95;;;10.35;;
10811;SDS011;5458;51.496;7.334;2022-08-03T12:12:33;7.72;;;7.13;;
10811;SDS011;5458;51.496;7.334;2022-08-03T12:15:00;11.98;;;11.43;;
10811;SDS011;5458;51.496;7.334;2022-08-03T12:17:33;8.93;;;8.43;;
10811;SDS011;5458;51.496;7.334;2022-08-03T12:19:59;6.85;;;6.60;;
10811;SDS011;5458;51.496;7.334;2022-08-03T12:22:32;8.30;;;7.18;;
10811;SDS011;5458;51.496;7.334;2022-08-03T12:24:59;8.68;;;8.25;;
10811;SDS011;5458;51.496;7.334;2022-08-03T12:27:25;14.05;;;13.23;;
10811;SDS011;5458;51.496;7.334;2022-08-03T12:29:54;9.80;;;9.20;;
10811;SDS011;5458;51.496;7.334;2022-08-03T12:32:21;12.55;;;11.75;;
10811;SDS011;5458;51.496;7.334;2022-08-03T12:34:47;7.55;;;7.25;;
10811;SDS011;5458;51.496;7.334;2022-08-03T12:37:21;15.07;;;14.52;;
10811;SDS011;5458;51.496;7.334;2022-08-03T12:39:54;15.20;;;14.50;;
10811;SDS011;5458;51.496;7.334;2022-08-03T12:42:20;9.27;;;8.88;;
10811;SDS011;5458;51.496;7.334;2022-08-03T12:44:53;9.68;;;9.13;;
10811;SDS011;5458;51.496;7.334;2022-08-03T12:47:19;21.20;;;20.40;;
10811;SDS011;5458;51.496;7.334;2022-08-03T12:49:48;12.88;;;12.07;;
10811;SDS011;5458;51.496;7.334;2022-08-03T12:52:16;8.85;;;8.35;;
10811;SDS011;5458;51.496;7.334;2022-08-03T12:54:59;8.98;;;8.57;;
10811;SDS011;5458;51.496;7.334;2022-08-03T12:57:25;12.02;;;11.52;;
10811;SDS011;5458;51.496;7.334;2022-08-03T13:00:11;18.48;;;17.55;;
10811;SDS011;5458;51.496;7.334;2022-08-03T13:02:38;12.13;;;11.55;;
10811;SDS011;5458;51.496;7.334;2022-08-03T13:05:13;8.60;;;8.20;;
10811;SDS011;5458;51.496;7.334;2022-08-03T13:07:40;10.63;;;10.13;;
10811;SDS011;5458;51.496;7.334;2022-08-03T13:10:07;11.95;;;11.27;;
10811;SDS011;5458;51.496;7.334;2022-08-03T13:12:44;7.47;;;7.13;;
10811;SDS011;5458;51.496;7.334;2022-08-03T13:15:14;11.50;;;10.90;;
10811;SDS011;5458;51.496;7.334;2022-08-03T13:17:40;17.30;;;16.60;;
10811;SDS011;5458;51.496;7.334;2022-08-03T13:20:06;10.35;;;9.60;;
10811;SDS011;5458;51.496;7.334;2022-08-03T13:22:32;13.50;;;12.82;;
10811;SDS011;5458;51.496;7.334;2022-08-03T13:24:58;20.80;;;20.00;;
10811;SDS011;5458;51.496;7.334;2022-08-03T13:27:28;11.20;;;10.70;;
10811;SDS011;5458;51.496;7.334;2022-08-03T13:29:55;11.60;;;11.05;;
10811;SDS011;5458;51.496;7.334;2022-08-03T13:32:21;18.80;;;18.02;;
10811;SDS011;5458;51.496;7.334;2022-08-03T13:34:47;9.63;;;9.00;;
10811;SDS011;5458;51.496;7.334;2022-08-03T13:37:13;9.82;;;9.10;;
10811;SDS011;5458;51.496;7.334;2022-08-03T13:39:39;12.05;;;11.15;;
10811;SDS011;5458;51.496;7.334;2022-08-03T13:42:05;24.73;;;23.73;;
10811;SDS011;5458;51.496;7.334;2022-08-03T13:44:32;12.30;;;11.60;;
10811;SDS011;5458;51.496;7.334;2022-08-03T13:46:57;12.05;;;11.45;;
10811;SDS011;5458;51.496;7.334;2022-08-03T13:49:24;26.08;;;25.25;;
10811;SDS011;5458;51.496;7.334;2022-08-03T13:51:50;9.20;;;8.90;;
10811;SDS011;5458;51.496;7.334;2022-08-03T13:54:16;8.35;;;7.93;;
10811;SDS011;5458;51.496;7.334;2022-08-03T13:56:43;9.13;;;8.65;;
10811;SDS011;5458;51.496;7.334;2022-08-03T13:59:14;10.23;;;9.75;;
10811;SDS011;5458;51.496;7.334;2022-08-03T14:01:39;16.45;;;15.73;;
10811;SDS011;5458;51.496;7.334;2022-08-03T14:04:05;25.50;;;24.50;;
10811;SDS011;5458;51.496;7.334;2022-08-03T14:06:31;11.88;;;11.32;;
10811;SDS011;5458;51.496;7.334;2022-08-03T14:08:56;9.45;;;8.80;;
10811;SDS011;5458;51.496;7.334;2022-08-03T14:11:22;10.73;;;10.07;;
10811;SDS011;5458;51.496;7.334;2022-08-03T14:13:47;8.57;;;8.27;;
10811;SDS011;5458;51.496;7.334;2022-08-03T14:16:13;11.30;;;10.65;;
10811;SDS011;5458;51.496;7.334;2022-08-03T14:18:39;8.57;;;7.72;;
10811;SDS011;5458;51.496;7.334;2022-08-03T14:21:06;9.43;;;9.00;;
10811;SDS011;5458;51.496;7.334;2022-08-03T14:23:31;13.52;;;12.93;;
10811;SDS011;5458;51.496;7.334;2022-08-03T14:25:58;11.15;;;10.65;;
10811;SDS011;5458;51.496;7.334;2022-08-03T14:28:24;11.35;;;10.85;;
10811;SDS011;5458;51.496;7.334;2022-08-03T14:30:50;14.93;;;14.45;;
10811;SDS011;5458;51.496;7.334;2022-08-03T14:33:17;11.57;;;11.15;;
10811;SDS011;5458;51.496;7.334;2022-08-03T14:35:43;18.50;;;17.77;;
10811;SDS011;5458;51.496;7.334;2022-08-03T14:38:09;17.20;;;16.55;;
10811;SDS011;5458;51.496;7.334;2022-08-03T14:40:35;10.20;;;9.73;;
10811;SDS011;5458;51.496;7.334;2022-08-03T14:43:00;18.17;;;17.42;;
10811;SDS011;5458;51.496;7.334;2022-08-03T14:45:26;15.75;;;15.23;;
10811;SDS011;5458;51.496;7.334;2022-08-03T14:47:52;7.82;;;7.43;;
10811;SDS011;5458;51.496;7.334;2022-08-03T14:50:17;6.10;;;5.25;;
10811;SDS011;5458;51.496;7.334;2022-08-03T14:52:43;8.35;;;8.00;;
10811;SDS011;5458;51.496;7.334;2022-08-03T14:55:08;5.75;;;5.43;;
10811;SDS011;5458;51.496;7.334;2022-08-03T14:57:34;6.78;;;6.35;;
10811;SDS011;5458;51.496;7.334;2022-08-03T15:00:00;14.68;;;14.18;;
10811;SDS011;5458;51.496;7.334;2022-08-03T15:02:25;9.70;;;9.13;;
10811;SDS011;5458;51.496;7.334;2022-08-03T15:04:53;4.93;;;4.63;;
10811;SDS011;5458;51.496;7.334;2022-08-03T15:07:18;6.45;;;6.05;;
10811;SDS011;5458;51.496;7.334;2022-08-03T15:09:44;7.40;;;7.05;;
10811;SDS011;5458;51.496;7.334;2022-08-03T15:12:10;6.40;;;6.07;;
10811;SDS011;5458;51.496;7.334;2022-08-03T15:14:35;6.28;;;5.93;;
10811;SDS011;5458;51.496;7.334;2022-08-03T15:17:01;8.73;;;8.25;;
10811;SDS011;5458;51.496;7.334;2022-08-03T15:19:26;8.43;;;8.05;;
10811;SDS011;5458;51.496;7.334;2022-08-03T15:21:52;8.85;;;8.18;;
10811;SDS011;5458;51.496;7.334;2022-08-03T15:24:18;11.82;;;11.32;;
10811;SDS011;5458;51.496;7.334;2022-08-03T15:26:44;7.47;;;7.00;;
10811;SDS011;5458;51.496;7.334;2022-08-03T15:29:09;16.52;;;15.93;;
10811;SDS011;5458;51.496;7.334;2022-08-03T15:31:35;12.68;;;12.20;;
10811;SDS011;5458;51.496;7.334;2022-08-03T15:34:00;6.57;;;6.18;;
10811;SDS011;5458;51.496;7.334;2022-08-03T15:36:26;7.63;;;7.13;;
10811;SDS011;5458;51.496;7.334;2022-08-03T15:38:52;6.80;;;6.47;;
10811;SDS011;5458;51.496;7.334;2022-08-03T15:41:17;7.90;;;7.50;;
10811;SDS011;5458;51.496;7.334;2022-08-03T15:43:43;7.47;;;6.97;;
10811;SDS011;5458;51.496;7.334;2022-08-03T15:46:10;15.60;;;15.10;;
10811;SDS011;5458;51.496;7.334;2022-08-03T15:48:37;12.40;;;12.00;;
10811;SDS011;5458;51.496;7.334;2022-08-03T15:51:03;7.22;;;6.82;;